Time;durP1;ratioP1;P1;durP2;ratioP2;P2;SDS_P1;SDS_P2;PMS_P1;PMS_P2;Temp;Humidity;BMP_temperature;BMP_pressure;BME280_temperature;BME280_humidity;BME280_pressure;Samples;Min_cycle;Max_cycle;Signal;HPM_P1;HPM_P2
2022/08/16 00:00:21;;;;;;;5.32;2.20;;;;;;;21.87;56.55;97733.84;5009680;28;20030;-60
2022/08/16 00:02:46;;;;;;;5.47;2.08;;;;;;;21.83;56.05;97731.88;5000112;28;20340;-59
2022/08/16 00:05:13;;;;;;;5.63;2.10;;;;;;;21.59;55.45;97694.97;5022425;28;20656;-59
2022/08/16 00:07:39;;;;;;;4.60;2.30;;;;;;;21.59;55.36;97691.53;5016890;28;20057;-59
2022/08/16 00:10:07;;;;;;;4.70;2.00;;;;;;;21.78;56.08;97735.28;5021962;28;20185;-60
2022/08/16 00:12:34;;;;;;;;;;;;;;;21.77;56.97;97748.72;5016562;28;20579;-59
2022/08/16 00:15:03;;;;;;;4.90;2.30;;;;;;;21.66;57.78;97739.81;5018717;28;19975;-59
2022/08/16 00:17:28;;;;;;;3.92;1.95;;;;;;;21.40;56.96;97701.50;5018140;28;20030;-59
2022/08/16 00:19:54;;;;;;;3.70;1.88;;;;;;;21.59;56.81;97739.94;5015575;28;20396;-59
2022/08/16 00:22:21;;;;;;;4.20;2.08;;;;;;;21.67;57.29;97749.38;4999083;28;20033;-60
2022/08/16 00:24:46;;;;;;;4.10;2.05;;;;;;;21.68;57.06;97748.31;5021011;28;20025;-60
2022/08/16 00:27:12;;;;;;;4.30;1.85;;;;;;;21.65;57.47;97754.88;5020051;28;20037;-60
2022/08/16 00:29:38;;;;;;;4.07;1.98;;;;;;;21.59;57.85;97755.03;5015140;28;20038;-59
2022/08/16 00:32:05;;;;;;;4.10;2.10;;;;;;;21.66;58.17;97753.84;5021785;28;20041;-59
2022/08/16 00:34:31;;;;;;;4.63;2.20;;;;;;;21.63;58.54;97769.38;5019216;28;20100;-61
2022/08/16 00:36:56;;;;;;;5.00;2.35;;;;;;;21.61;58.10;97761.69;5037635;28;20028;-58
2022/08/16 00:39:22;;;;;;;5.22;2.22;;;;;;;21.54;59.14;97754.91;5017944;28;20030;-60
2022/08/16 00:41:48;;;;;;;5.47;2.38;;;;;;;21.49;59.41;97769.66;5021718;28;20032;-59
2022/08/16 00:44:16;;;;;;;5.00;2.30;;;;;;;21.43;59.54;97767.94;5013276;28;20070;-59
2022/08/16 00:47:09;;;;;;;5.88;2.25;;;;;;;21.38;60.24;97777.63;5005485;28;20596;-59
2022/08/16 00:49:35;;;;;;;5.28;2.30;;;;;;;21.30;59.39;97757.63;5003834;28;20049;-59
2022/08/16 00:52:00;;;;;;;5.38;2.60;;;;;;;21.21;60.63;97761.66;5021715;28;20487;-59
2022/08/16 00:54:29;;;;;;;6.50;2.60;;;;;;;20.92;61.43;97720.16;5001688;28;20470;-60
2022/08/16 00:56:57;;;;;;;5.57;2.60;;;;;;;21.19;61.59;97774.31;5020163;28;20105;-59
2022/08/16 00:59:26;;;;;;;4.05;2.13;;;;;;;21.21;62.38;97769.59;5023228;28;20028;-59
2022/08/16 01:01:52;;;;;;;5.28;2.30;;;;;;;21.18;63.88;97772.72;5013132;28;20384;-59
2022/08/16 01:04:21;;;;;;;6.05;2.72;;;;;;;20.96;64.45;97738.19;5008219;28;20037;-59
2022/08/16 01:06:48;;;;;;;5.40;2.65;;;;;;;20.85;63.25;97735.31;5004685;28;20029;-59
2022/08/16 01:09:14;;;;;;;6.97;2.83;;;;;;;21.08;64.27;97770.66;5021918;28;20029;-59
2022/08/16 01:11:40;;;;;;;5.72;2.67;;;;;;;21.04;64.55;97777.44;5021087;28;20071;-58
2022/08/16 01:14:22;;;;;;;5.40;2.50;;;;;;;21.12;63.83;97785.03;5019365;28;20067;-60
2022/08/16 01:16:48;;;;;;;5.57;2.50;;;;;;;21.15;63.38;97789.03;5034747;28;20040;-59
2022/08/16 01:19:16;;;;;;;6.18;2.92;;;;;;;21.06;64.21;97791.22;5002602;28;20029;-59
2022/08/16 01:21:54;;;;;;;4.60;2.20;;;;;;;20.88;64.73;97790.34;5050931;28;20122;-59
2022/08/16 01:24:30;;;;;;;8.23;2.53;;;;;;;20.46;65.21;97719.16;5016656;28;20071;-59
2022/08/16 01:27:00;;;;;;;4.85;2.63;;;;;;;20.82;66.06;97795.75;5012372;28;20037;-59
2022/08/16 01:29:38;;;;;;;4.95;2.40;;;;;;;20.84;65.83;97796.31;5015028;28;20021;-58
2022/08/16 01:32:03;;;;;;;4.95;2.70;;;;;;;20.81;66.64;97799.41;5001509;28;20092;-58
2022/08/16 01:34:30;;;;;;;5.07;2.80;;;;;;;20.76;66.85;97792.19;5002136;28;20030;-58
2022/08/16 01:37:06;;;;;;;4.60;2.60;;;;;;;20.65;67.17;97790.34;5018475;28;20061;-58
2022/08/16 01:39:32;;;;;;;6.28;2.58;;;;;;;20.71;67.42;97792.06;5003815;28;20048;-59
2022/08/16 01:41:58;;;;;;;4.88;2.90;;;;;;;20.65;67.94;97782.44;4997232;28;20342;-59
2022/08/16 01:44:24;;;;;;;6.18;3.03;;;;;;;20.67;68.13;97796.22;5011753;28;20107;-60
2022/08/16 01:46:52;;;;;;;4.82;2.63;;;;;;;20.71;68.28;97800.78;4999370;28;20617;-58
2022/08/16 01:49:27;;;;;;;5.20;2.83;;;;;;;20.71;68.54;97797.34;5018095;28;20057;-59
2022/08/16 01:51:59;;;;;;;5.00;2.58;;;;;;;20.66;68.98;97794.59;4998093;28;20044;-59
2022/08/16 01:54:24;;;;;;;5.15;2.90;;;;;;;20.33;69.32;97764.22;5003052;28;20029;-59
2022/08/16 01:56:50;;;;;;;6.03;2.72;;;;;;;20.63;69.20;97806.44;5011286;28;20033;-59
2022/08/16 01:59:17;;;;;;;4.57;2.70;;;;;;;20.63;69.01;97806.44;5011728;28;20030;-58
2022/08/16 02:01:44;;;;;;;6.10;3.20;;;;;;;20.56;68.45;97800.41;5019622;28;20033;-59
2022/08/16 02:04:09;;;;;;;6.22;2.88;;;;;;;20.28;68.39;97764.09;5022028;28;20387;-59
2022/08/16 02:06:35;;;;;;;6.22;2.97;;;;;;;20.49;68.83;97805.00;5020158;28;20033;-59
2022/08/16 02:09:00;;;;;;;5.63;2.95;;;;;;;20.47;68.63;97801.78;5018438;28;20046;-59
2022/08/16 02:11:27;;;;;;;4.72;2.80;;;;;;;20.50;68.44;97804.00;5019746;28;20615;-59
2022/08/16 02:13:54;;;;;;;5.95;2.70;;;;;;;20.52;68.20;97802.72;5015143;28;20026;-60
2022/08/16 02:16:19;;;;;;;5.13;2.65;;;;;;;20.44;68.80;97808.31;5016568;28;20033;-59
2022/08/16 02:18:46;;;;;;;5.00;2.63;;;;;;;20.47;68.11;97801.78;5012511;28;20284;-59
2022/08/16 02:21:12;;;;;;;5.90;2.60;;;;;;;20.36;68.09;97801.53;4998983;28;20078;-60
2022/08/16 02:23:37;;;;;;;4.75;2.50;;;;;;;20.50;68.30;97798.72;5012929;28;20034;-58
2022/08/16 02:26:04;;;;;;;5.28;3.00;;;;;;;20.43;68.80;97801.44;5002828;28;20038;-59
2022/08/16 02:28:29;;;;;;;5.75;2.78;;;;;;;20.39;69.03;97802.13;5004226;28;20079;-58
2022/08/16 02:30:57;;;;;;;5.50;2.65;;;;;;;20.35;69.04;97802.59;5016488;28;20033;-59
2022/08/16 02:33:25;;;;;;;5.60;2.72;;;;;;;20.38;68.71;97798.69;5018132;28;20026;-59
2022/08/16 02:35:50;;;;;;;5.68;3.08;;;;;;;20.41;68.05;97800.03;4998435;28;20041;-59
2022/08/16 02:38:15;;;;;;;5.22;2.67;;;;;;;20.31;69.11;97800.63;4999244;28;20029;-59
2022/08/16 02:40:41;;;;;;;4.72;2.80;;;;;;;20.25;69.22;97806.81;5002528;28;20052;-58
2022/08/16 02:43:06;;;;;;;4.28;2.47;;;;;;;20.00;69.10;97765.56;5010611;28;20038;-58
2022/08/16 02:45:32;;;;;;;7.18;3.08;;;;;;;20.19;68.87;97810.34;5019459;28;20449;-60
2022/08/16 02:47:58;;;;;;;4.38;2.45;;;;;;;20.23;68.94;97819.44;5018842;28;20033;-59
2022/08/16 02:50:24;;;;;;;5.45;2.50;;;;;;;20.16;69.16;97811.59;5013945;28;20116;-59
2022/08/16 02:52:49;;;;;;;4.78;2.78;;;;;;;20.20;69.05;97817.25;5018970;28;20033;-58
2022/08/16 02:55:15;;;;;;;4.68;2.80;;;;;;;20.09;69.99;97816.97;5017767;28;20042;-60
2022/08/16 02:57:40;;;;;;;5.68;2.88;;;;;;;20.19;69.09;97819.09;5015464;28;20078;-59
2022/08/16 03:00:09;;;;;;;6.15;2.75;;;;;;;20.18;68.71;97820.09;5019435;28;20037;-59
2022/08/16 03:02:35;;;;;;;5.05;2.80;;;;;;;19.96;69.24;97773.13;5021341;28;20043;-59
2022/08/16 03:05:01;;;;;;;5.60;3.33;;;;;;;20.20;68.89;97817.25;5019265;28;20029;-57
2022/08/16 03:07:26;;;;;;;6.00;2.83;;;;;;;20.08;68.96;97791.63;4997221;28;20060;-60
2022/08/16 03:09:52;;;;;;;4.70;3.00;;;;;;;19.98;69.69;97778.16;5001356;28;20661;-59
2022/08/16 03:12:18;;;;;;;5.63;2.97;;;;;;;20.26;69.20;97813.69;4999474;28;20028;-58
2022/08/16 03:14:44;;;;;;;5.30;2.88;;;;;;;20.14;70.00;97817.09;5017713;28;20025;-59
2022/08/16 03:17:09;;;;;;;5.13;3.00;;;;;;;20.16;70.71;97820.31;5015205;28;20041;-58
2022/08/16 03:19:35;;;;;;;5.55;3.00;;;;;;;20.11;70.32;97803.56;5018900;28;20443;-60
2022/08/16 03:22:00;;;;;;;5.57;2.80;;;;;;;19.84;70.10;97761.75;5020929;28;20028;-59
2022/08/16 03:24:27;;;;;;;5.90;2.72;;;;;;;19.82;70.36;97765.63;5012435;28;20038;-59
2022/08/16 03:26:52;;;;;;;5.47;2.60;;;;;;;20.08;70.24;97804.81;5019766;28;20025;-59
2022/08/16 03:29:18;;;;;;;5.03;2.90;;;;;;;20.21;69.50;97819.66;5017206;28;20036;-59
2022/08/16 03:31:43;;;;;;;5.93;2.90;;;;;;;19.97;69.54;97782.66;5003353;28;20027;-58
2022/08/16 03:34:08;;;;;;;5.68;2.75;;;;;;;20.18;69.30;97814.81;4998529;28;20232;-59
2022/08/16 03:36:34;;;;;;;5.10;2.92;;;;;;;19.95;69.82;97786.53;5004175;28;20124;-59
2022/08/16 03:38:59;;;;;;;5.00;2.90;;;;;;;19.92;69.53;97774.59;5017140;28;20650;-59
2022/08/16 03:41:25;;;;;;;6.18;2.92;;;;;;;20.00;69.64;97786.66;5017782;28;20075;-59
2022/08/16 03:43:53;;;;;;;5.45;2.72;;;;;;;20.08;69.38;97793.44;4997974;28;20087;-60
2022/08/16 03:46:21;;;;;;;5.10;2.95;;;;;;;20.34;68.57;97816.00;5016055;28;20124;-59
2022/08/16 03:48:48;;;;;;;5.32;2.83;;;;;;;20.18;67.85;97788.44;5021431;28;20121;-59
2022/08/16 03:51:14;;;;;;;5.13;2.65;;;;;;;20.32;68.79;97813.59;5016455;28;20030;-60
2022/08/16 03:53:41;;;;;;;4.63;2.67;;;;;;;20.32;68.62;97823.34;5011223;28;20034;-57
2022/08/16 03:56:07;;;;;;;5.68;3.15;;;;;;;20.01;68.89;97790.91;4999658;28;20033;-59
2022/08/16 03:58:34;;;;;;;5.72;3.00;;;;;;;20.18;69.09;97825.38;4998529;28;20828;-58
2022/08/16 04:00:59;;;;;;;5.40;2.92;;;;;;;20.13;68.98;97817.31;5017601;28;20087;-58
2022/08/16 04:03:25;;;;;;;6.43;3.10;;;;;;;20.09;68.71;97795.88;5008165;28;20452;-58
2022/08/16 04:05:50;;;;;;;5.57;2.67;;;;;;;20.25;68.95;97828.72;5002170;28;20559;-59
2022/08/16 04:08:19;;;;;;;4.63;2.65;;;;;;;20.13;69.03;97818.16;5013876;28;20040;-59
2022/08/16 04:10:45;;;;;;;5.63;2.58;;;;;;;20.16;69.13;97822.97;5005309;28;20036;-58
2022/08/16 04:13:10;;;;;;;6.00;3.13;;;;;;;20.13;69.51;97833.16;5013962;28;20038;-59
2022/08/16 04:15:37;;;;;;;6.50;3.10;;;;;;;20.05;69.52;97826.38;5019315;28;20860;-60
2022/08/16 04:18:03;;;;;;;5.03;3.00;;;;;;;20.08;69.62;97833.03;5016662;28;20030;-58
2022/08/16 04:20:30;;;;;;;6.45;2.90;;;;;;;20.18;69.45;97835.94;5002162;28;20033;-59
2022/08/16 04:22:56;;;;;;;5.45;2.92;;;;;;;20.30;68.78;97834.13;5024202;28;20029;-59
2022/08/16 04:25:22;;;;;;;6.32;2.80;;;;;;;20.16;68.71;97830.88;5004870;28;20029;-59
2022/08/16 04:27:48;;;;;;;5.22;3.00;;;;;;;20.19;68.26;97834.91;5020941;28;20033;-59
2022/08/16 04:30:16;;;;;;;5.05;2.55;;;;;;;20.01;67.92;97793.56;5025741;28;20393;-58
2022/08/16 04:32:41;;;;;;;5.22;2.90;;;;;;;20.17;68.11;97839.63;5021735;28;20026;-57
2022/08/16 04:35:10;;;;;;;4.85;3.00;;;;;;;19.88;68.19;97797.19;5022204;28;20252;-59
2022/08/16 04:37:36;;;;;;;5.10;3.10;;;;;;;20.12;68.26;97847.41;5005415;28;20017;-58
2022/08/16 04:40:03;;;;;;;4.40;2.53;;;;;;;20.15;68.27;97854.84;5021505;28;20083;-60
2022/08/16 04:42:28;;;;;;;5.28;2.65;;;;;;;20.09;68.36;97853.13;5020663;28;20127;-59
2022/08/16 04:44:54;;;;;;;5.18;2.78;;;;;;;20.04;68.79;97860.91;5022218;28;20045;-59
2022/08/16 04:47:20;;;;;;;6.45;2.55;;;;;;;19.72;68.42;97797.78;5020604;28;20560;-59
2022/08/16 04:49:45;;;;;;;5.10;2.95;;;;;;;20.12;68.40;97876.44;5022359;28;20068;-58
2022/08/16 04:52:11;;;;;;;6.90;3.03;;;;;;;20.08;68.43;97888.44;5019640;28;20133;-59
2022/08/16 04:54:36;;;;;;;5.38;2.92;;;;;;;20.13;68.63;97881.50;5018737;28;20021;-59
2022/08/16 04:57:02;;;;;;;5.40;3.03;;;;;;;20.18;69.37;97883.44;4997028;28;20910;-59
2022/08/16 04:59:27;;;;;;;4.93;2.80;;;;;;;20.16;69.58;97890.78;5015851;28;20578;-58
2022/08/16 05:01:55;;;;;;;6.35;3.00;;;;;;;20.17;70.23;97892.41;5002874;28;20030;-59
2022/08/16 05:04:22;;;;;;;5.75;3.03;;;;;;;19.82;70.50;97858.72;5017209;28;20056;-58
2022/08/16 05:06:48;;;;;;;4.85;2.70;;;;;;;20.06;70.86;97890.50;5010452;28;20144;-59
2022/08/16 05:09:13;;;;;;;5.38;3.30;;;;;;;20.14;71.98;97900.75;5000021;28;20559;-57
2022/08/16 05:11:39;;;;;;;4.47;2.67;;;;;;;20.11;71.11;97888.00;5001426;28;20032;-61
2022/08/16 05:14:04;;;;;;;5.55;2.75;;;;;;;20.10;71.07;97887.19;5016536;28;20080;-59
2022/08/16 05:16:30;;;;;;;5.85;2.80;;;;;;;19.90;71.31;97860.28;5032517;28;20029;-58
2022/08/16 05:18:58;;;;;;;5.25;3.03;;;;;;;20.08;71.24;97904.28;5017407;28;20034;-59
2022/08/16 05:21:24;;;;;;;5.75;2.85;;;;;;;20.05;71.77;97894.19;4988956;28;20120;-60
2022/08/16 05:23:51;;;;;;;5.20;3.00;;;;;;;20.17;71.30;97897.69;5002229;28;20029;-59
2022/08/16 05:26:17;;;;;;;4.68;2.80;;;;;;;20.10;72.10;97895.13;4992596;28;20033;-59
2022/08/16 05:28:43;;;;;;;6.13;2.90;;;;;;;20.12;71.75;97900.97;5001849;28;20032;-58
2022/08/16 05:31:08;;;;;;;5.13;2.63;;;;;;;19.94;71.21;97872.00;5020085;28;20346;-59
2022/08/16 05:33:33;;;;;;;4.95;2.67;;;;;;;20.15;71.13;97899.72;5021002;28;20061;-59
2022/08/16 05:35:59;;;;;;;5.68;2.83;;;;;;;20.09;70.54;97898.78;5019386;28;20506;-59
2022/08/16 05:38:26;;;;;;;4.78;2.90;;;;;;;20.04;70.95;97900.47;5020732;28;20025;-59
2022/08/16 05:40:56;;;;;;;5.07;2.95;;;;;;;20.06;70.72;97908.97;5001225;28;20785;-61
2022/08/16 05:43:22;;;;;;;5.05;2.83;;;;;;;19.81;70.92;97872.16;5015512;28;20488;-59
2022/08/16 05:45:48;;;;;;;5.00;2.80;;;;;;;19.96;71.05;97905.03;5000705;28;20036;-59
2022/08/16 05:48:13;;;;;;;5.10;3.08;;;;;;;20.02;71.60;97900.69;5002451;28;20041;-59
2022/08/16 05:50:39;;;;;;;6.38;3.00;;;;;;;20.06;70.86;97901.06;5030694;28;20671;-59
2022/08/16 05:53:05;;;;;;;6.68;2.88;;;;;;;19.95;70.39;97897.34;5010928;28;20029;-58
2022/08/16 05:55:30;;;;;;;5.90;3.08;;;;;;;19.68;70.27;97867.84;5010264;28;20373;-59
2022/08/16 05:57:56;;;;;;;4.70;2.80;;;;;;;19.93;70.07;97902.03;5017567;28;20059;-59
2022/08/16 06:00:21;;;;;;;4.82;2.55;;;;;;;20.00;69.78;97907.22;5016175;28;20029;-59
2022/08/16 06:02:48;;;;;;;5.00;3.00;;;;;;;20.07;69.31;97921.16;5010675;28;20684;-59
2022/08/16 06:05:13;;;;;;;5.05;2.97;;;;;;;20.19;68.39;97926.47;5009528;28;20064;-59
2022/08/16 06:07:39;;;;;;;4.53;2.65;;;;;;;20.08;68.23;97912.19;5017894;28;20095;-59
2022/08/16 06:10:06;;;;;;;4.72;2.58;;;;;;;19.86;68.42;97885.47;5016470;28;20482;-57
2022/08/16 06:12:31;;;;;;;4.90;2.92;;;;;;;20.11;67.24;97925.75;4992302;28;20026;-59
2022/08/16 06:15:00;;;;;;;4.72;2.70;;;;;;;20.19;66.39;97918.53;5016823;28;20080;-58
2022/08/16 06:17:26;;;;;;;5.07;2.67;;;;;;;20.17;66.15;97932.78;4999667;28;20038;-58
2022/08/16 06:19:52;;;;;;;5.80;3.03;;;;;;;20.20;65.37;97933.38;5010749;28;20643;-59
2022/08/16 06:22:17;;;;;;;6.65;2.70;;;;;;;19.92;65.28;97876.69;5018196;28;20038;-58
2022/08/16 06:24:43;;;;;;;6.20;2.72;;;;;;;20.09;64.78;97893.50;5017629;28;20037;-57
2022/08/16 06:27:09;;;;;;;6.32;2.63;;;;;;;20.23;64.54;97911.81;5012824;28;20064;-57
2022/08/16 06:29:34;;;;;;;4.50;2.55;;;;;;;20.38;64.47;97930.69;5017290;28;20032;-57
2022/08/16 06:32:00;;;;;;;5.20;2.97;;;;;;;20.50;63.10;97933.38;5019919;28;20057;-59
2022/08/16 06:34:25;;;;;;;4.70;2.53;;;;;;;20.46;63.35;97933.00;5015092;28;20431;-58
2022/08/16 06:36:50;;;;;;;5.28;2.65;;;;;;;20.53;63.04;97939.00;5017208;28;20025;-58
2022/08/16 06:39:16;;;;;;;5.72;2.83;;;;;;;20.48;64.17;97933.59;5013570;28;20107;-58
2022/08/16 06:41:42;;;;;;;5.78;2.80;;;;;;;20.25;63.74;97902.63;5014866;28;20231;-58
2022/08/16 06:44:07;;;;;;;4.97;2.50;;;;;;;20.65;63.31;97943.53;5009818;28;20112;-58
2022/08/16 06:46:36;;;;;;;4.53;2.63;;;;;;;20.77;63.43;97949.63;5011024;28;20489;-59
2022/08/16 06:49:04;;;;;;;6.28;2.80;;;;;;;20.93;64.34;97948.19;5010664;28;20549;-59
2022/08/16 06:51:30;;;;;;;5.15;2.83;;;;;;;21.09;64.28;97944.06;5017545;28;20824;-58
2022/08/16 06:53:55;;;;;;;4.78;2.80;;;;;;;21.13;63.68;97948.66;5015802;28;20029;-58
2022/08/16 06:56:21;;;;;;;4.50;2.53;;;;;;;21.15;63.91;97953.72;5009166;28;20507;-59
2022/08/16 06:58:46;;;;;;;4.90;2.70;;;;;;;21.13;64.17;97951.28;5013709;28;20029;-57
2022/08/16 07:01:12;;;;;;;5.63;2.85;;;;;;;21.18;64.18;97945.34;5014551;28;20065;-57
2022/08/16 07:03:37;;;;;;;5.78;2.50;;;;;;;21.35;63.51;97956.03;5017394;28;20033;-57
2022/08/16 07:06:03;;;;;;;6.95;2.72;;;;;;;21.45;63.11;97947.56;5022857;28;20076;-58
2022/08/16 07:08:29;;;;;;;5.35;2.35;;;;;;;21.41;63.46;97947.19;5017324;28;20033;-57
2022/08/16 07:10:55;;;;;;;5.13;2.60;;;;;;;21.35;64.10;97960.50;5014590;28;20025;-56
2022/08/16 07:13:21;;;;;;;6.78;2.88;;;;;;;21.34;63.25;97956.25;5002835;28;20084;-58
2022/08/16 07:15:48;;;;;;;5.25;2.95;;;;;;;21.25;63.24;97924.88;5013473;28;20734;-58
2022/08/16 07:18:14;;;;;;;7.38;3.35;;;;;;;21.39;63.25;97935.22;5017573;28;20790;-58
2022/08/16 07:20:40;;;;;;;5.10;2.92;;;;;;;21.62;63.06;97964.31;5016375;28;20088;-57
2022/08/16 07:23:07;;;;;;;7.22;2.92;;;;;;;21.49;62.49;97946.84;5019716;28;20033;-58
2022/08/16 07:25:33;;;;;;;5.15;2.88;;;;;;;21.18;64.08;97940.06;5021530;28;20476;-58
2022/08/16 07:27:59;;;;;;;5.38;2.63;;;;;;;21.29;63.94;97955.09;5024408;28;20029;-58
2022/08/16 07:30:25;;;;;;;5.07;2.70;;;;;;;21.17;64.39;97943.72;5015200;28;20064;-58
2022/08/16 07:32:51;;;;;;;5.30;2.60;;;;;;;21.11;64.87;97952.56;5003845;28;20057;-57
2022/08/16 07:35:17;;;;;;;7.70;2.90;;;;;;;21.03;64.84;97947.63;5007398;28;20528;-57
2022/08/16 07:37:43;;;;;;;5.25;2.90;;;;;;;20.86;65.22;97915.78;5014490;28;20057;-57
2022/08/16 07:40:09;;;;;;;5.05;2.80;;;;;;;21.13;64.44;97947.84;5020740;28;20419;-57
2022/08/16 07:42:34;;;;;;;5.65;2.58;;;;;;;20.89;64.52;97928.53;5014571;28;20030;-59
2022/08/16 07:45:00;;;;;;;5.18;2.80;;;;;;;21.06;64.88;97952.44;5017609;28;20585;-57
2022/08/16 07:47:25;;;;;;;4.70;2.55;;;;;;;20.86;64.26;97926.34;5015149;28;20033;-57
2022/08/16 07:49:51;;;;;;;6.38;2.92;;;;;;;20.99;64.32;97949.94;5017879;28;20537;-58
2022/08/16 07:52:16;;;;;;;7.90;2.60;;;;;;;20.99;63.83;97947.28;5017486;28;20052;-58
2022/08/16 07:54:41;;;;;;;4.40;2.65;;;;;;;21.07;64.21;97948.78;5020938;28;20156;-57
2022/08/16 07:57:07;;;;;;;5.10;2.90;;;;;;;21.20;63.66;97953.03;5020069;28;20022;-57
2022/08/16 07:59:32;;;;;;;5.88;2.60;;;;;;;21.06;62.86;97926.81;5022629;28;20112;-57
2022/08/16 08:01:57;;;;;;;5.00;2.28;;;;;;;21.34;62.25;97958.88;5022229;28;20377;-58
2022/08/16 08:04:23;;;;;;;5.40;2.67;;;;;;;21.23;61.60;97940.16;5015839;28;20044;-57
2022/08/16 08:06:48;;;;;;;5.65;2.85;;;;;;;21.26;61.41;97946.81;5018862;28;20033;-60
2022/08/16 08:09:13;;;;;;;5.53;2.95;;;;;;;21.33;61.15;97947.53;5014494;28;20041;-57
2022/08/16 08:11:39;;;;;;;4.65;2.70;;;;;;;21.34;61.55;97943.03;5016732;28;20854;-57
2022/08/16 08:14:05;;;;;;;7.90;3.08;;;;;;;21.36;61.55;97946.28;5018102;28;20038;-57
2022/08/16 08:16:31;;;;;;;5.65;2.90;;;;;;;20.91;61.89;97879.69;5018178;28;20475;-57
2022/08/16 08:18:59;;;;;;;5.47;2.60;;;;;;;21.22;61.37;97912.13;5020669;28;20036;-57
2022/08/16 08:21:24;;;;;;;6.53;3.10;;;;;;;21.60;61.52;97947.09;5017619;28;20044;-58
2022/08/16 08:23:51;;;;;;;6.45;3.20;;;;;;;22.34;58.57;97918.13;5022048;28;20049;-57
2022/08/16 08:26:17;;;;;;;4.80;2.80;;;;;;;23.50;54.57;97934.53;5013869;28;20025;-57
2022/08/16 08:28:43;;;;;;;6.47;2.78;;;;;;;24.30;51.70;97945.59;4997977;28;20029;-58
2022/08/16 08:31:09;;;;;;;4.68;2.72;;;;;;;24.94;49.99;97951.00;5022255;28;20063;-58
2022/08/16 08:33:35;;;;;;;4.72;2.65;;;;;;;25.50;48.64;97942.63;5024568;28;20706;-57
2022/08/16 08:36:06;;;;;;;6.68;2.45;;;;;;;26.43;46.76;97956.28;5022290;28;20033;-58
2022/08/16 08:38:32;;;;;;;5.75;2.92;;;;;;;27.40;45.48;97947.56;5004300;28;20249;-58
2022/08/16 08:40:57;;;;;;;5.78;2.40;;;;;;;27.50;42.86;97949.38;5005108;28;20029;-58
2022/08/16 08:43:23;;;;;;;5.60;2.20;;;;;;;27.86;42.16;97942.06;5018638;28;20670;-58
2022/08/16 08:45:50;;;;;;;5.15;2.40;;;;;;;28.34;40.63;97936.22;5003292;28;20771;-58
2022/08/16 08:48:17;;;;;;;4.50;2.38;;;;;;;28.36;39.85;97904.66;5020449;28;20041;-58
2022/08/16 08:50:42;;;;;;;4.50;2.30;;;;;;;28.92;37.63;97922.19;5004036;28;20080;-59
2022/08/16 08:53:08;;;;;;;4.72;2.22;;;;;;;29.01;37.78;97935.75;5017823;28;20203;-57
2022/08/16 08:55:34;;;;;;;4.50;2.20;;;;;;;28.79;37.22;97912.94;5019056;28;20036;-59
2022/08/16 08:57:59;;;;;;;7.05;2.83;;;;;;;28.81;37.48;97909.97;5013422;28;20042;-57
2022/08/16 09:00:27;;;;;;;4.72;2.42;;;;;;;29.01;37.56;97939.22;4988267;28;20082;-58
2022/08/16 09:02:52;;;;;;;5.10;2.20;;;;;;;28.87;37.18;97914.19;5005468;28;20041;-58
2022/08/16 09:05:20;;;;;;;6.10;2.22;;;;;;;29.14;37.71;97932.44;5018884;28;20029;-57
2022/08/16 09:07:45;;;;;;;4.43;2.17;;;;;;;28.59;37.69;97900.53;5034183;28;20380;-58
2022/08/16 09:10:11;;;;;;;5.00;2.15;;;;;;;28.54;38.73;97904.03;5018514;28;20099;-57
2022/08/16 09:12:38;;;;;;;5.13;2.42;;;;;;;28.19;38.93;97929.88;5019190;28;20048;-57
2022/08/16 09:15:05;;;;;;;5.43;2.80;;;;;;;28.09;39.43;97927.28;5014600;28;20026;-57
2022/08/16 09:17:31;;;;;;;4.40;2.30;;;;;;;27.09;40.21;97917.41;5016052;28;20156;-58
2022/08/16 09:19:56;;;;;;;4.68;2.00;;;;;;;26.17;42.37;97921.59;5010428;28;20057;-57
2022/08/16 09:22:24;;;;;;;4.97;2.50;;;;;;;25.66;43.76;97918.72;5006244;28;20036;-58
2022/08/16 09:24:50;;;;;;;4.50;2.30;;;;;;;25.32;46.66;97933.19;5014224;28;20521;-57
2022/08/16 09:27:16;;;;;;;4.82;2.55;;;;;;;25.01;45.69;97923.38;5013487;28;20840;-57
2022/08/16 09:29:42;;;;;;;5.38;2.10;;;;;;;24.96;46.98;97934.78;5014538;28;20041;-57
2022/08/16 09:32:07;;;;;;;5.07;2.20;;;;;;;24.90;46.76;97925.97;5010512;28;20030;-57
2022/08/16 09:34:33;;;;;;;4.85;2.30;;;;;;;25.09;47.43;97933.53;5010463;28;20469;-58
2022/08/16 09:36:58;;;;;;;5.45;2.67;;;;;;;25.31;45.23;97923.59;5012213;28;20728;-58
2022/08/16 09:39:25;;;;;;;4.72;2.38;;;;;;;25.43;45.27;97899.47;5007565;28;20068;-57
2022/08/16 09:41:53;;;;;;;6.38;2.58;;;;;;;25.61;45.46;97924.84;4996613;28;20037;-58
2022/08/16 09:44:19;;;;;;;5.88;2.63;;;;;;;25.66;46.37;97922.19;5015603;28;20030;-57
2022/08/16 09:46:45;;;;;;;4.55;2.35;;;;;;;25.75;45.93;97921.69;5018896;28;20408;-57
2022/08/16 09:49:11;;;;;;;5.07;2.40;;;;;;;25.81;46.22;97925.97;4998624;28;20033;-58
2022/08/16 09:51:36;;;;;;;4.28;2.28;;;;;;;25.77;46.22;97923.03;5010160;28;20668;-57
2022/08/16 09:54:03;;;;;;;5.18;2.58;;;;;;;26.05;45.83;97932.50;5012321;28;20365;-58
2022/08/16 09:56:32;;;;;;;4.60;2.58;;;;;;;25.94;46.21;97924.72;5012285;28;20053;-60
2022/08/16 09:58:59;;;;;;;5.93;2.80;;;;;;;26.05;46.07;97931.69;5010252;28;20104;-58
2022/08/16 10:01:24;;;;;;;5.90;2.72;;;;;;;26.03;46.31;97939.13;5012327;28;20034;-58
2022/08/16 10:03:51;;;;;;;6.35;2.58;;;;;;;25.77;46.24;97900.94;5015521;28;20033;-57
2022/08/16 10:06:20;;;;;;;6.25;2.70;;;;;;;25.98;46.41;97931.16;5016924;28;20074;-57
2022/08/16 10:08:50;;;;;;;4.78;2.63;;;;;;;25.96;46.16;97918.09;5000814;28;20022;-58
2022/08/16 10:14:01;;;;;;;4.90;2.50;;;;;;;25.87;46.84;97888.47;5015842;28;20053;-57
2022/08/16 10:16:27;;;;;;;5.93;2.60;;;;;;;26.12;47.12;97921.59;5014020;28;20026;-59
2022/08/16 10:18:52;;;;;;;5.68;2.75;;;;;;;26.11;48.43;97921.84;5019778;28;20547;-57
2022/08/16 10:21:18;;;;;;;5.40;2.67;;;;;;;26.07;49.81;97921.59;5012668;28;20043;-57
2022/08/16 10:23:44;;;;;;;5.65;2.92;;;;;;;26.07;50.39;97916.25;5003619;28;20033;-58
2022/08/16 10:26:10;;;;;;;6.40;2.83;;;;;;;26.26;49.70;97913.88;5013279;28;20040;-57
2022/08/16 10:28:35;;;;;;;6.20;2.90;;;;;;;26.21;49.92;97909.38;5006709;28;20542;-56
2022/08/16 10:31:02;;;;;;;6.55;2.65;;;;;;;26.26;49.84;97916.56;5009725;28;20037;-58
2022/08/16 10:33:28;;;;;;;4.82;2.50;;;;;;;26.10;49.60;97867.75;5007443;28;20120;-56
2022/08/16 10:35:54;;;;;;;5.57;3.03;;;;;;;26.51;49.15;97899.81;5008954;28;20753;-57
2022/08/16 10:38:20;;;;;;;5.80;3.10;;;;;;;26.39;48.56;97868.06;5006707;28;20014;-57
2022/08/16 10:40:45;;;;;;;5.57;2.78;;;;;;;26.55;48.86;97898.19;5014471;28;20079;-57
2022/08/16 10:43:11;;;;;;;5.25;2.80;;;;;;;26.49;48.76;97896.59;5008723;28;20773;-58
2022/08/16 10:45:38;;;;;;;4.70;2.70;;;;;;;26.54;48.85;97898.47;5011915;28;20109;-59
2022/08/16 10:48:06;;;;;;;5.03;2.90;;;;;;;26.54;48.42;97895.78;5001060;28;20064;-58
2022/08/16 10:50:32;;;;;;;6.07;3.00;;;;;;;26.59;48.26;97887.81;5013298;28;20455;-58
2022/08/16 10:52:58;;;;;;;5.07;2.70;;;;;;;26.69;48.34;97893.19;5009586;28;20033;-58
2022/08/16 10:55:25;;;;;;;5.70;3.03;;;;;;;26.88;47.55;97890.75;5004369;28;20161;-58
2022/08/16 10:57:54;;;;;;;4.78;2.85;;;;;;;26.87;47.47;97888.34;5013135;28;20033;-58
2022/08/16 11:00:20;;;;;;;;;;;;;;;26.98;47.23;97890.75;4990788;28;20123;-57
2022/08/16 11:02:45;;;;;;;5.23;2.90;;;;;;;27.00;47.25;97888.63;5010673;28;21552;-57
2022/08/16 11:05:13;;;;;;;6.63;3.15;;;;;;;27.18;46.95;97886.44;4997543;28;20615;-59
2022/08/16 11:07:41;;;;;;;4.80;2.97;;;;;;;27.22;47.03;97879.50;5002635;28;20032;-58
2022/08/16 11:10:07;;;;;;;5.20;2.95;;;;;;;27.16;47.49;97888.56;5012418;28;20033;-59
2022/08/16 11:12:33;;;;;;;6.25;2.83;;;;;;;27.24;47.24;97886.16;5003283;28;20480;-58
2022/08/16 11:14:59;;;;;;;6.00;3.40;;;;;;;27.33;47.21;97891.78;5007733;28;20068;-58
2022/08/16 11:17:25;;;;;;;6.85;3.05;;;;;;;27.29;47.62;97893.41;5013069;28;20036;-58
2022/08/16 11:19:50;;;;;;;6.32;2.90;;;;;;;27.27;47.14;97884.88;4993058;28;20053;-61
2022/08/16 11:22:18;;;;;;;8.18;2.90;;;;;;;27.28;46.89;97893.66;5012925;28;20125;-60
2022/08/16 11:24:44;;;;;;;5.97;2.85;;;;;;;27.37;46.52;97897.38;5010742;28;20025;-58
2022/08/16 11:27:21;;;;;;;6.75;2.92;;;;;;;27.47;45.82;97902.66;5009036;28;20132;-59
2022/08/16 11:29:48;;;;;;;5.40;2.72;;;;;;;27.41;46.52;97882.41;5003384;28;20033;-57
2022/08/16 11:32:14;;;;;;;5.82;2.60;;;;;;;27.57;46.41;97899.97;5017622;28;20497;-58